createdAt,value
2022-12-10T00:01:19.945Z,6.13
2022-12-10T00:04:22.693Z,6.83
2022-12-10T00:07:24.824Z,7.97
2022-12-10T00:10:26.917Z,7.63
2022-12-10T00:13:29.107Z,7.33
2022-12-10T00:16:35.378Z,6.63
2022-12-10T00:19:37.673Z,8.07
2022-12-10T00:22:39.809Z,6.93
2022-12-10T00:25:42.625Z,6.73
2022-12-10T00:28:45.714Z,6.13
2022-12-10T00:31:47.742Z,6.23
2022-12-10T00:34:49.906Z,6.13
2022-12-10T00:37:51.926Z,5.83
2022-12-10T00:40:53.963Z,6.00
2022-12-10T00:43:56.113Z,6.13
2022-12-10T00:46:58.113Z,5.93
2022-12-10T00:50:00.983Z,7.10
2022-12-10T00:53:03.103Z,5.17
2022-12-10T00:56:05.934Z,5.20
2022-12-10T00:59:08.039Z,5.63
2022-12-10T01:02:10.734Z,5.70
2022-12-10T01:05:13.355Z,4.40
2022-12-10T01:08:15.456Z,4.47
2022-12-10T01:11:20.217Z,4.80
2022-12-10T01:14:28.117Z,4.57
2022-12-10T01:17:31.296Z,5.50
2022-12-10T01:20:36.457Z,4.20
2022-12-10T01:23:42.205Z,4.47
2022-12-10T01:26:44.200Z,4.10
2022-12-10T01:29:46.265Z,4.63
2022-12-10T01:32:48.277Z,4.97
2022-12-10T01:35:50.432Z,5.30
2022-12-10T01:38:53.588Z,4.00
2022-12-10T01:41:58.295Z,4.53
2022-12-10T01:45:07.992Z,5.50
2022-12-10T01:48:10.080Z,5.03
2022-12-10T01:51:13.748Z,5.00
2022-12-10T01:54:20.387Z,5.27
2022-12-10T01:57:28.463Z,5.47
2022-12-10T02:00:35.857Z,4.47
2022-12-10T02:04:12.035Z,4.83
2022-12-10T02:07:17.197Z,4.60
2022-12-10T02:10:56.219Z,5.13
2022-12-10T02:14:13.915Z,4.80
2022-12-10T02:17:24.015Z,6.13
2022-12-10T02:20:37.988Z,5.17
2022-12-10T02:23:50.562Z,5.70
2022-12-10T02:27:08.054Z,5.60
2022-12-10T02:30:10.818Z,5.80
2022-12-10T02:33:15.294Z,6.47
2022-12-10T02:36:20.033Z,5.80
2022-12-10T02:39:32.259Z,6.10
2022-12-10T02:42:39.958Z,5.50
2022-12-10T02:45:44.849Z,7.10
2022-12-10T02:48:50.265Z,6.13
2022-12-10T02:51:54.123Z,6.73
2022-12-10T02:54:57.303Z,8.53
2022-12-10T02:58:18.594Z,6.37
2022-12-10T03:01:43.125Z,6.37
2022-12-10T03:05:03.396Z,6.13
2022-12-10T03:08:20.320Z,6.57
2022-12-10T03:11:24.342Z,7.50
2022-12-10T03:14:32.287Z,7.87
2022-12-10T03:17:36.143Z,6.57
2022-12-10T03:20:44.062Z,7.57
2022-12-10T03:23:49.160Z,8.80
2022-12-10T03:26:53.607Z,7.03
2022-12-10T03:29:59.288Z,7.57
2022-12-10T03:33:02.348Z,8.43
2022-12-10T03:36:06.611Z,6.50
2022-12-10T03:39:09.525Z,7.60
2022-12-10T03:42:11.571Z,8.37
2022-12-10T03:45:13.628Z,8.70
2022-12-10T03:48:15.580Z,10.20
2022-12-10T03:51:17.567Z,7.13
2022-12-10T03:54:19.631Z,7.57
2022-12-10T03:57:21.719Z,7.50
2022-12-10T04:00:23.794Z,6.90
2022-12-10T04:03:25.748Z,8.47
2022-12-10T04:06:27.861Z,7.27
2022-12-10T04:09:29.958Z,8.70
2022-12-10T04:12:32.015Z,8.87
2022-12-10T04:15:52.879Z,7.40
2022-12-10T04:19:10.908Z,7.93
2022-12-10T04:22:31.591Z,7.83
2022-12-10T04:25:52.074Z,8.63
2022-12-10T04:28:55.356Z,8.23
2022-12-10T04:31:58.179Z,8.90
2022-12-10T04:35:00.288Z,8.50
2022-12-10T04:38:02.326Z,8.30
2022-12-10T04:41:16.503Z,8.67
2022-12-10T04:44:19.991Z,9.30
2022-12-10T04:47:22.240Z,11.17
2022-12-10T04:50:24.228Z,10.17
2022-12-10T04:53:26.228Z,10.33
2022-12-10T04:56:28.331Z,11.30
2022-12-10T04:59:30.289Z,10.67
2022-12-10T05:02:35.699Z,10.03
2022-12-10T05:05:38.069Z,11.80
2022-12-10T05:08:41.779Z,11.43
2022-12-10T05:11:45.583Z,9.87
2022-12-10T05:14:47.491Z,11.60
2022-12-10T05:17:49.477Z,10.70
2022-12-10T05:20:51.472Z,12.00
2022-12-10T05:23:53.807Z,11.60
2022-12-10T05:26:57.746Z,12.00
2022-12-10T05:29:59.761Z,11.83
2022-12-10T05:33:01.786Z,13.63
2022-12-10T05:36:05.517Z,13.23
2022-12-10T05:39:08.152Z,12.67
2022-12-10T05:42:10.193Z,13.37
2022-12-10T05:45:13.170Z,12.53
2022-12-10T05:48:17.410Z,13.40
2022-12-10T05:51:23.419Z,14.60
2022-12-10T05:54:25.738Z,13.77
2022-12-10T05:57:27.942Z,11.47
2022-12-10T06:00:30.034Z,11.80
2022-12-10T06:03:32.055Z,11.83
2022-12-10T06:06:39.466Z,14.77
2022-12-10T06:09:41.480Z,14.70
2022-12-10T06:12:43.562Z,16.03
2022-12-10T06:15:45.721Z,14.93
2022-12-10T06:18:47.742Z,12.43
2022-12-10T06:21:52.672Z,16.23
2022-12-10T06:24:54.893Z,13.47
2022-12-10T06:27:57.012Z,15.87
2022-12-10T06:31:00.719Z,15.63
2022-12-10T06:34:03.352Z,18.70
2022-12-10T06:37:08.562Z,18.63
2022-12-10T06:40:11.144Z,14.90
2022-12-10T06:43:13.340Z,16.03
2022-12-10T06:46:18.562Z,15.47
2022-12-10T06:49:20.618Z,14.57
2022-12-10T06:52:22.760Z,14.70
2022-12-10T06:55:25.228Z,15.60
2022-12-10T06:58:31.569Z,16.43
2022-12-10T07:01:34.388Z,16.83
2022-12-10T07:04:36.560Z,17.03
2022-12-10T07:07:41.183Z,16.83
2022-12-10T07:10:55.146Z,14.57
2022-12-10T07:14:00.117Z,14.73
2022-12-10T07:17:03.506Z,18.87
2022-12-10T07:20:06.438Z,16.30
2022-12-10T07:23:08.771Z,17.17
2022-12-10T07:26:17.248Z,17.03
2022-12-10T07:29:22.900Z,16.37
2022-12-10T07:32:26.192Z,15.67
2022-12-10T07:35:28.549Z,18.00
2022-12-10T07:38:30.673Z,15.87
2022-12-10T07:41:32.886Z,17.23
2022-12-10T07:44:35.512Z,16.40
2022-12-10T07:47:40.203Z,16.87
2022-12-10T07:50:44.538Z,16.50
2022-12-10T07:53:47.123Z,13.83
2022-12-10T07:56:50.730Z,15.83
2022-12-10T07:59:52.736Z,16.23
2022-12-10T08:02:58.417Z,15.73
2022-12-10T08:06:10.075Z,15.83
2022-12-10T08:09:13.460Z,16.90
2022-12-10T08:12:15.509Z,15.33
2022-12-10T08:15:17.521Z,17.83
2022-12-10T08:18:19.518Z,18.97
2022-12-10T08:21:24.666Z,19.40
2022-12-10T08:24:26.702Z,21.20
2022-12-10T08:27:29.158Z,16.63
2022-12-10T08:30:32.038Z,18.10
2022-12-10T08:33:36.046Z,20.40
2022-12-10T08:36:38.492Z,16.67
2022-12-10T08:39:41.415Z,19.63
2022-12-10T08:42:43.793Z,20.60
2022-12-10T08:45:45.890Z,19.40
2022-12-10T08:48:47.969Z,19.20
2022-12-10T08:51:50.087Z,19.27
2022-12-10T08:54:52.464Z,20.60
2022-12-10T08:57:54.523Z,19.97
2022-12-10T09:00:56.983Z,21.33
2022-12-10T09:03:59.708Z,19.57
2022-12-10T09:07:02.785Z,18.80
2022-12-10T09:10:05.360Z,22.07
2022-12-10T09:13:08.069Z,20.70
2022-12-10T09:16:10.522Z,20.13
2022-12-10T09:19:18.384Z,22.53
2022-12-10T09:22:22.127Z,23.10
2022-12-10T09:25:24.094Z,24.10
2022-12-10T09:28:26.111Z,21.27
2022-12-10T09:31:28.812Z,21.87
2022-12-10T09:34:32.902Z,19.63
2022-12-10T09:37:34.907Z,23.30
2022-12-10T09:40:44.318Z,20.80
2022-12-10T09:43:51.455Z,23.10
2022-12-10T09:46:58.942Z,26.07
2022-12-10T09:50:30.189Z,23.53
2022-12-10T09:53:33.767Z,22.77
2022-12-10T09:56:41.094Z,23.20
2022-12-10T09:59:48.060Z,22.23
2022-12-10T10:02:52.177Z,21.93
2022-12-10T10:05:57.646Z,25.60
2022-12-10T10:09:03.612Z,23.60
2022-12-10T10:12:14.732Z,25.77
2022-12-10T10:15:23.834Z,24.77
2022-12-10T10:18:42.100Z,29.93
2022-12-10T10:21:50.766Z,23.90
2022-12-10T10:24:52.784Z,31.17
2022-12-10T10:27:55.843Z,25.47
2022-12-10T10:30:57.917Z,24.43
2022-12-10T10:34:05.690Z,29.63
2022-12-10T10:37:08.409Z,27.33
2022-12-10T10:40:40.636Z,24.97
2022-12-10T10:43:48.537Z,26.53
2022-12-10T10:46:53.622Z,25.70
2022-12-10T10:49:55.633Z,28.37
2022-12-10T10:52:57.596Z,28.63
2022-12-10T10:56:08.324Z,27.23
2022-12-10T10:59:19.294Z,24.17
2022-12-10T11:02:42.809Z,26.13
2022-12-10T11:05:49.171Z,26.20
2022-12-10T11:08:56.048Z,26.23
2022-12-10T11:12:04.289Z,28.33
2022-12-10T11:15:30.570Z,33.00
2022-12-10T11:18:38.005Z,26.57
2022-12-10T11:21:40.040Z,27.30
2022-12-10T11:24:42.039Z,25.10
2022-12-10T11:28:03.055Z,26.00
2022-12-10T11:31:11.024Z,25.57
2022-12-10T11:34:43.485Z,25.40
2022-12-10T11:37:56.047Z,28.43
2022-12-10T11:41:21.518Z,28.13
2022-12-10T11:44:29.182Z,22.97
2022-12-10T11:47:41.870Z,26.80
2022-12-10T11:51:05.490Z,27.57
2022-12-10T11:54:27.525Z,25.00
2022-12-10T11:57:48.939Z,24.23
2022-12-10T12:01:11.903Z,25.40
2022-12-10T12:04:41.837Z,23.87
2022-12-10T12:07:54.976Z,27.83
2022-12-10T12:11:06.041Z,25.97
2022-12-10T12:14:17.297Z,27.80
2022-12-10T12:17:30.265Z,28.40
2022-12-10T12:20:38.885Z,29.50
2022-12-10T12:24:04.576Z,23.53
2022-12-10T12:27:14.691Z,30.20
2022-12-10T12:30:20.466Z,27.87
2022-12-10T12:33:25.122Z,30.17
2022-12-10T12:36:35.726Z,30.33
2022-12-10T12:39:51.292Z,28.77
2022-12-10T12:43:19.033Z,33.13
2022-12-10T12:46:38.449Z,27.87
2022-12-10T12:49:42.661Z,32.40
2022-12-10T12:52:52.228Z,30.83
2022-12-10T12:56:07.087Z,29.83
2022-12-10T12:59:21.069Z,27.07
2022-12-10T13:02:41.929Z,29.63
2022-12-10T13:05:45.158Z,29.93
2022-12-10T13:09:08.655Z,32.70
2022-12-10T13:12:16.588Z,30.10
2022-12-10T13:15:37.511Z,33.50
2022-12-10T13:18:40.940Z,31.73
2022-12-10T13:21:51.913Z,29.50
2022-12-10T13:25:14.727Z,32.40
2022-12-10T13:28:41.539Z,30.33
2022-12-10T13:31:58.100Z,27.97
2022-12-10T13:35:08.928Z,30.47
2022-12-10T13:38:26.722Z,46.53
2022-12-10T13:41:47.328Z,32.50
2022-12-10T13:45:00.260Z,29.10
2022-12-10T13:48:21.021Z,30.27
2022-12-10T13:51:28.731Z,26.60
2022-12-10T13:55:22.289Z,27.30
2022-12-10T13:59:12.124Z,28.80
2022-12-10T14:02:25.801Z,28.73
2022-12-10T14:05:48.906Z,29.47
2022-12-10T14:09:11.839Z,28.10
2022-12-10T14:12:21.752Z,26.33
2022-12-10T14:15:26.514Z,30.07
2022-12-10T14:18:31.354Z,30.90
2022-12-10T14:21:39.996Z,31.87
2022-12-10T14:24:44.434Z,31.03
2022-12-10T14:27:54.435Z,34.17
2022-12-10T14:30:56.461Z,29.80
2022-12-10T14:34:06.237Z,29.27
2022-12-10T14:37:14.546Z,29.47
2022-12-10T14:40:24.754Z,26.40
2022-12-10T14:43:36.829Z,29.70
2022-12-10T14:46:38.886Z,28.00
2022-12-10T14:49:44.444Z,29.17
2022-12-10T14:52:51.988Z,30.50
2022-12-10T14:55:59.156Z,29.57
2022-12-10T14:59:22.241Z,29.07
2022-12-10T15:02:34.950Z,30.47
2022-12-10T15:05:38.182Z,28.03
2022-12-10T15:08:43.920Z,26.57
2022-12-10T15:11:46.167Z,25.13
2022-12-10T15:14:48.974Z,27.67
2022-12-10T15:18:02.177Z,27.33
2022-12-10T15:21:06.491Z,30.47
2022-12-10T15:24:16.960Z,30.53
2022-12-10T15:27:25.616Z,29.77
2022-12-10T15:30:41.051Z,30.87
2022-12-10T15:34:08.584Z,31.47
2022-12-10T15:37:42.355Z,28.27
2022-12-10T15:40:45.386Z,29.87
2022-12-10T15:44:05.869Z,29.20
2022-12-10T15:47:25.293Z,31.30
2022-12-10T15:50:31.259Z,28.90
2022-12-10T15:53:39.737Z,28.57
2022-12-10T15:56:44.137Z,28.57
2022-12-10T15:59:49.795Z,28.87
2022-12-10T16:02:58.135Z,29.73
2022-12-10T16:06:00.546Z,30.17
2022-12-10T16:09:03.998Z,30.33
2022-12-10T16:12:11.855Z,33.13
2022-12-10T16:15:22.130Z,31.83
2022-12-10T16:18:28.273Z,31.80
2022-12-10T16:21:34.929Z,29.63
2022-12-10T16:24:43.567Z,31.47
2022-12-10T16:27:48.519Z,29.53
2022-12-10T16:30:56.472Z,28.10
2022-12-10T16:33:59.402Z,31.77
2022-12-10T16:37:02.298Z,33.00
2022-12-10T16:40:05.307Z,30.03
2022-12-10T16:43:19.831Z,30.67
2022-12-10T16:46:26.029Z,35.20
2022-12-10T16:49:28.634Z,32.03
2022-12-10T16:52:31.871Z,30.27
2022-12-10T16:55:35.769Z,31.77
2022-12-10T16:58:38.169Z,32.87
2022-12-10T17:01:40.496Z,32.10
2022-12-10T17:04:43.047Z,32.10
2022-12-10T17:07:45.326Z,35.00
2022-12-10T17:11:07.923Z,35.43
2022-12-10T17:14:31.758Z,33.97
2022-12-10T17:17:33.854Z,31.63
2022-12-10T17:20:36.166Z,35.30
2022-12-10T17:23:38.739Z,33.23
2022-12-10T17:26:45.318Z,32.03
2022-12-10T17:29:54.905Z,32.90
2022-12-10T17:32:57.692Z,34.47
2022-12-10T17:36:00.003Z,33.53
2022-12-10T17:39:02.845Z,37.63
2022-12-10T17:42:06.077Z,36.53
2022-12-10T17:45:08.960Z,36.97
2022-12-10T17:48:20.387Z,37.50
2022-12-10T17:51:23.530Z,37.83
2022-12-10T17:54:27.609Z,36.50
2022-12-10T17:57:29.954Z,38.73
2022-12-10T18:00:34.505Z,39.63
2022-12-10T18:03:40.879Z,36.60
2022-12-10T18:06:43.067Z,42.37
2022-12-10T18:09:45.231Z,37.87
2022-12-10T18:12:48.083Z,40.20
2022-12-10T18:15:51.609Z,40.00
2022-12-10T18:18:56.119Z,40.37
2022-12-10T18:21:58.964Z,39.33
2022-12-10T18:25:01.336Z,42.57
2022-12-10T18:28:40.049Z,43.43
2022-12-10T18:31:46.494Z,43.83
2022-12-10T18:34:48.768Z,42.90
2022-12-10T18:37:52.570Z,44.60
2022-12-10T18:40:56.357Z,42.97
2022-12-10T18:43:59.376Z,42.40
2022-12-10T18:47:01.967Z,40.77
2022-12-10T18:50:05.585Z,42.17
2022-12-10T18:53:12.554Z,38.73
2022-12-10T18:56:22.628Z,38.60
2022-12-10T18:59:25.267Z,39.87
2022-12-10T19:02:28.199Z,42.30
2022-12-10T19:05:31.354Z,40.00
2022-12-10T19:08:55.090Z,39.47
2022-12-10T19:11:57.399Z,36.60
2022-12-10T19:15:00.131Z,35.17
2022-12-10T19:18:04.607Z,33.27
2022-12-10T19:21:09.464Z,37.83
2022-12-10T19:24:16.620Z,35.10
2022-12-10T19:27:19.931Z,37.40
2022-12-10T19:30:26.475Z,32.03
2022-12-10T19:33:29.226Z,33.07
2022-12-10T19:36:32.300Z,33.63
2022-12-10T19:39:36.385Z,33.57
2022-12-10T19:42:39.225Z,33.80
2022-12-10T19:45:41.870Z,32.63
2022-12-10T19:48:46.931Z,28.67
2022-12-10T19:51:50.705Z,31.30
2022-12-10T19:54:53.503Z,31.30
2022-12-10T19:57:56.815Z,30.90
2022-12-10T20:01:05.783Z,31.00
2022-12-10T20:04:08.970Z,31.37
2022-12-10T20:07:13.934Z,32.17
2022-12-10T20:10:35.280Z,30.40
2022-12-10T20:13:39.853Z,36.13
2022-12-10T20:16:45.319Z,35.40
2022-12-10T20:19:48.449Z,38.00
2022-12-10T20:22:52.315Z,39.67
2022-12-10T20:25:56.354Z,36.50
2022-12-10T20:29:00.908Z,34.73
2022-12-10T20:32:04.849Z,35.90
2022-12-10T20:35:09.265Z,34.27
2022-12-10T20:38:13.905Z,37.47
2022-12-10T20:41:19.057Z,42.20
2022-12-10T20:44:23.826Z,39.07
2022-12-10T20:47:27.088Z,34.87
2022-12-10T20:50:31.739Z,34.63
2022-12-10T20:53:39.128Z,36.50
2022-12-10T20:56:44.157Z,34.63
2022-12-10T20:59:47.425Z,30.97
2022-12-10T21:02:51.475Z,30.03
2022-12-10T21:05:56.303Z,35.00
2022-12-10T21:09:00.743Z,33.93
2022-12-10T21:12:04.784Z,38.73
2022-12-10T21:15:16.546Z,35.37
2022-12-10T21:18:25.170Z,34.20
2022-12-10T21:21:28.683Z,39.43
2022-12-10T21:24:31.378Z,39.07
2022-12-10T21:27:33.664Z,36.87
2022-12-10T21:30:35.913Z,44.60
2022-12-10T21:33:39.902Z,40.07
2022-12-10T21:36:42.371Z,42.53
2022-12-10T21:39:45.090Z,42.97
2022-12-10T21:43:05.704Z,43.00
2022-12-10T21:46:11.074Z,42.27
2022-12-10T21:49:13.598Z,40.77
2022-12-10T21:52:17.169Z,38.63
2022-12-10T21:55:24.053Z,34.93
2022-12-10T21:58:29.098Z,38.53
2022-12-10T22:01:31.385Z,36.30
2022-12-10T22:04:33.368Z,34.87
2022-12-10T22:07:37.206Z,38.07
2022-12-10T22:10:39.250Z,35.77
2022-12-10T22:13:41.379Z,33.27
2022-12-10T22:16:48.133Z,34.63
2022-12-10T22:19:50.926Z,32.33
2022-12-10T22:22:53.128Z,34.20
2022-12-10T22:25:57.555Z,32.00
2022-12-10T22:28:59.922Z,28.77
2022-12-10T22:32:01.946Z,30.27
2022-12-10T22:35:04.081Z,30.20
2022-12-10T22:38:06.309Z,27.93
2022-12-10T22:41:08.445Z,30.60
2022-12-10T22:44:11.143Z,28.60
2022-12-10T22:47:13.080Z,29.13
2022-12-10T22:50:15.203Z,28.23
2022-12-10T22:53:17.284Z,27.43
2022-12-10T22:56:19.548Z,29.43
2022-12-10T22:59:21.512Z,30.00
2022-12-10T23:02:23.434Z,26.20
2022-12-10T23:05:25.495Z,30.83
2022-12-10T23:08:28.770Z,29.50
2022-12-10T23:11:30.798Z,33.47
2022-12-10T23:14:34.006Z,32.03
2022-12-10T23:17:36.043Z,30.50
2022-12-10T23:20:38.483Z,28.83
2022-12-10T23:23:40.435Z,29.93
2022-12-10T23:26:44.440Z,33.93
2022-12-10T23:29:46.775Z,33.83
2022-12-10T23:32:48.974Z,35.20
2022-12-10T23:35:50.937Z,34.27
2022-12-10T23:38:52.970Z,36.63
2022-12-10T23:41:54.942Z,33.47
2022-12-10T23:44:58.102Z,36.83
2022-12-10T23:48:00.715Z,41.97
2022-12-10T23:51:02.952Z,38.50
2022-12-10T23:54:05.154Z,39.40
2022-12-10T23:57:07.136Z,40.07
